sensor_id;sensor_type;location;lat;lon;timestamp;P1;durP1;ratioP1;P2;durP2;ratioP2
38479;SDS011;62333;51.980;5.934;2023-05-07T00:00:00;4.82;;;1.35;;
38479;SDS011;62333;51.980;5.934;2023-05-07T00:02:26;2.67;;;1.30;;
38479;SDS011;62333;51.980;5.934;2023-05-07T00:04:51;2.72;;;1.27;;
38479;SDS011;62333;51.980;5.934;2023-05-07T00:07:17;2.75;;;1.15;;
38479;SDS011;62333;51.980;5.934;2023-05-07T00:09:43;2.75;;;1.50;;
38479;SDS011;62333;51.980;5.934;2023-05-07T00:12:09;2.80;;;1.63;;
38479;SDS011;62333;51.980;5.934;2023-05-07T00:14:35;2.95;;;1.58;;
38479;SDS011;62333;51.980;5.934;2023-05-07T00:17:01;3.22;;;2.08;;
38479;SDS011;62333;51.980;5.934;2023-05-07T00:19:27;3.42;;;1.75;;
38479;SDS011;62333;51.980;5.934;2023-05-07T00:21:52;3.67;;;1.70;;
38479;SDS011;62333;51.980;5.934;2023-05-07T00:24:19;3.40;;;2.05;;
38479;SDS011;62333;51.980;5.934;2023-05-07T00:26:44;2.72;;;1.52;;
38479;SDS011;62333;51.980;5.934;2023-05-07T00:29:10;2.17;;;1.23;;
38479;SDS011;62333;51.980;5.934;2023-05-07T00:31:36;2.85;;;1.17;;
38479;SDS011;62333;51.980;5.934;2023-05-07T00:34:02;4.32;;;2.10;;
38479;SDS011;62333;51.980;5.934;2023-05-07T00:36:27;4.88;;;1.60;;
38479;SDS011;62333;51.980;5.934;2023-05-07T00:38:54;3.30;;;1.30;;
38479;SDS011;62333;51.980;5.934;2023-05-07T00:41:21;3.05;;;1.42;;
38479;SDS011;62333;51.980;5.934;2023-05-07T00:43:47;5.95;;;2.85;;
38479;SDS011;62333;51.980;5.934;2023-05-07T00:46:13;3.50;;;2.03;;
38479;SDS011;62333;51.980;5.934;2023-05-07T00:48:40;4.50;;;2.20;;
38479;SDS011;62333;51.980;5.934;2023-05-07T00:51:06;4.13;;;2.20;;
38479;SDS011;62333;51.980;5.934;2023-05-07T00:53:32;3.42;;;2.22;;
38479;SDS011;62333;51.980;5.934;2023-05-07T00:55:57;2.63;;;1.58;;
38479;SDS011;62333;51.980;5.934;2023-05-07T00:58:23;4.70;;;1.92;;
38479;SDS011;62333;51.980;5.934;2023-05-07T01:00:49;4.70;;;2.47;;
38479;SDS011;62333;51.980;5.934;2023-05-07T01:03:15;3.30;;;1.58;;
38479;SDS011;62333;51.980;5.934;2023-05-07T01:05:41;3.22;;;1.95;;
38479;SDS011;62333;51.980;5.934;2023-05-07T01:08:09;2.95;;;1.52;;
38479;SDS011;62333;51.980;5.934;2023-05-07T01:10:35;5.47;;;2.40;;
38479;SDS011;62333;51.980;5.934;2023-05-07T01:13:01;2.88;;;1.58;;
38479;SDS011;62333;51.980;5.934;2023-05-07T01:15:27;4.65;;;2.60;;
38479;SDS011;62333;51.980;5.934;2023-05-07T01:17:53;3.22;;;1.70;;
38479;SDS011;62333;51.980;5.934;2023-05-07T01:20:20;3.15;;;2.00;;
38479;SDS011;62333;51.980;5.934;2023-05-07T01:22:48;3.50;;;1.90;;
38479;SDS011;62333;51.980;5.934;2023-05-07T01:25:14;5.07;;;1.58;;
38479;SDS011;62333;51.980;5.934;2023-05-07T01:27:41;2.72;;;1.60;;
38479;SDS011;62333;51.980;5.934;2023-05-07T01:30:07;5.45;;;2.35;;
38479;SDS011;62333;51.980;5.934;2023-05-07T01:35:22;4.25;;;1.95;;
38479;SDS011;62333;51.980;5.934;2023-05-07T01:37:52;3.80;;;2.00;;
38479;SDS011;62333;51.980;5.934;2023-05-07T01:40:19;3.85;;;2.22;;
38479;SDS011;62333;51.980;5.934;2023-05-07T01:42:45;4.43;;;1.83;;
38479;SDS011;62333;51.980;5.934;2023-05-07T01:45:13;3.53;;;1.63;;
38479;SDS011;62333;51.980;5.934;2023-05-07T01:47:39;3.60;;;2.47;;
38479;SDS011;62333;51.980;5.934;2023-05-07T01:50:05;4.60;;;2.78;;
38479;SDS011;62333;51.980;5.934;2023-05-07T01:52:32;4.07;;;2.15;;
38479;SDS011;62333;51.980;5.934;2023-05-07T01:54:59;3.70;;;2.35;;
38479;SDS011;62333;51.980;5.934;2023-05-07T01:57:25;4.07;;;2.20;;
38479;SDS011;62333;51.980;5.934;2023-05-07T01:59:51;3.35;;;1.80;;
38479;SDS011;62333;51.980;5.934;2023-05-07T02:02:17;6.40;;;2.03;;
38479;SDS011;62333;51.980;5.934;2023-05-07T02:04:42;3.38;;;1.98;;
38479;SDS011;62333;51.980;5.934;2023-05-07T02:07:08;6.22;;;1.92;;
38479;SDS011;62333;51.980;5.934;2023-05-07T02:09:33;4.57;;;2.45;;
38479;SDS011;62333;51.980;5.934;2023-05-07T02:11:59;3.45;;;1.90;;
38479;SDS011;62333;51.980;5.934;2023-05-07T02:14:25;4.10;;;2.55;;
38479;SDS011;62333;51.980;5.934;2023-05-07T02:16:51;3.13;;;1.77;;
38479;SDS011;62333;51.980;5.934;2023-05-07T02:19:16;4.35;;;2.65;;
38479;SDS011;62333;51.980;5.934;2023-05-07T02:21:43;5.18;;;2.80;;
38479;SDS011;62333;51.980;5.934;2023-05-07T02:24:08;3.83;;;2.50;;
38479;SDS011;62333;51.980;5.934;2023-05-07T02:26:34;3.90;;;3.42;;
38479;SDS011;62333;51.980;5.934;2023-05-07T02:29:00;3.95;;;2.60;;
38479;SDS011;62333;51.980;5.934;2023-05-07T02:31:25;3.22;;;2.22;;
38479;SDS011;62333;51.980;5.934;2023-05-07T02:33:51;5.32;;;2.10;;
38479;SDS011;62333;51.980;5.934;2023-05-07T02:36:17;3.80;;;2.17;;
38479;SDS011;62333;51.980;5.934;2023-05-07T02:38:42;4.63;;;2.53;;
38479;SDS011;62333;51.980;5.934;2023-05-07T02:41:08;2.92;;;1.95;;
38479;SDS011;62333;51.980;5.934;2023-05-07T02:43:34;4.93;;;3.17;;
38479;SDS011;62333;51.980;5.934;2023-05-07T02:46:08;4.07;;;2.47;;
38479;SDS011;62333;51.980;5.934;2023-05-07T02:48:34;5.80;;;3.05;;
38479;SDS011;62333;51.980;5.934;2023-05-07T02:51:00;6.15;;;2.75;;
38479;SDS011;62333;51.980;5.934;2023-05-07T02:53:27;3.78;;;2.53;;
38479;SDS011;62333;51.980;5.934;2023-05-07T02:55:53;5.97;;;2.97;;
38479;SDS011;62333;51.980;5.934;2023-05-07T02:58:19;4.97;;;2.42;;
38479;SDS011;62333;51.980;5.934;2023-05-07T03:00:44;3.30;;;1.98;;
38479;SDS011;62333;51.980;5.934;2023-05-07T03:03:10;4.40;;;2.38;;
38479;SDS011;62333;51.980;5.934;2023-05-07T03:05:36;4.53;;;3.45;;
38479;SDS011;62333;51.980;5.934;2023-05-07T03:08:02;5.20;;;3.17;;
38479;SDS011;62333;51.980;5.934;2023-05-07T03:10:28;4.32;;;2.55;;
38479;SDS011;62333;51.980;5.934;2023-05-07T03:12:54;4.30;;;3.13;;
38479;SDS011;62333;51.980;5.934;2023-05-07T03:15:20;4.05;;;2.60;;
38479;SDS011;62333;51.980;5.934;2023-05-07T03:17:46;6.10;;;2.38;;
38479;SDS011;62333;51.980;5.934;2023-05-07T03:20:12;3.75;;;2.47;;
38479;SDS011;62333;51.980;5.934;2023-05-07T03:22:38;5.90;;;3.70;;
38479;SDS011;62333;51.980;5.934;2023-05-07T03:25:05;6.10;;;3.90;;
38479;SDS011;62333;51.980;5.934;2023-05-07T03:27:31;5.10;;;3.15;;
38479;SDS011;62333;51.980;5.934;2023-05-07T03:29:57;6.43;;;3.45;;
38479;SDS011;62333;51.980;5.934;2023-05-07T03:32:22;7.85;;;3.97;;
38479;SDS011;62333;51.980;5.934;2023-05-07T03:34:48;4.25;;;3.53;;
38479;SDS011;62333;51.980;5.934;2023-05-07T03:37:14;7.72;;;3.10;;
38479;SDS011;62333;51.980;5.934;2023-05-07T03:39:39;5.80;;;3.67;;
38479;SDS011;62333;51.980;5.934;2023-05-07T03:42:05;5.70;;;3.05;;
38479;SDS011;62333;51.980;5.934;2023-05-07T03:44:30;6.55;;;2.85;;
38479;SDS011;62333;51.980;5.934;2023-05-07T03:46:56;4.53;;;3.13;;
38479;SDS011;62333;51.980;5.934;2023-05-07T03:49:22;3.83;;;2.95;;
38479;SDS011;62333;51.980;5.934;2023-05-07T03:51:47;7.35;;;3.65;;
38479;SDS011;62333;51.980;5.934;2023-05-07T03:54:13;8.32;;;4.82;;
38479;SDS011;62333;51.980;5.934;2023-05-07T03:56:39;8.00;;;5.00;;
38479;SDS011;62333;51.980;5.934;2023-05-07T03:59:05;4.80;;;3.47;;
38479;SDS011;62333;51.980;5.934;2023-05-07T04:01:30;6.95;;;4.68;;
38479;SDS011;62333;51.980;5.934;2023-05-07T04:03:56;7.57;;;4.53;;
38479;SDS011;62333;51.980;5.934;2023-05-07T04:06:22;6.30;;;4.75;;
38479;SDS011;62333;51.980;5.934;2023-05-07T04:08:47;5.57;;;3.83;;
38479;SDS011;62333;51.980;5.934;2023-05-07T04:11:13;7.15;;;5.07;;
38479;SDS011;62333;51.980;5.934;2023-05-07T04:13:38;6.53;;;4.63;;
38479;SDS011;62333;51.980;5.934;2023-05-07T04:16:04;5.32;;;3.85;;
38479;SDS011;62333;51.980;5.934;2023-05-07T04:18:30;8.75;;;4.95;;
38479;SDS011;62333;51.980;5.934;2023-05-07T04:20:56;5.72;;;3.95;;
38479;SDS011;62333;51.980;5.934;2023-05-07T04:23:22;6.57;;;4.82;;
38479;SDS011;62333;51.980;5.934;2023-05-07T04:25:47;5.82;;;5.20;;
38479;SDS011;62333;51.980;5.934;2023-05-07T04:28:13;5.30;;;4.38;;
38479;SDS011;62333;51.980;5.934;2023-05-07T04:30:39;6.07;;;4.60;;
38479;SDS011;62333;51.980;5.934;2023-05-07T04:33:06;6.97;;;4.50;;
38479;SDS011;62333;51.980;5.934;2023-05-07T04:35:33;5.65;;;4.32;;
38479;SDS011;62333;51.980;5.934;2023-05-07T04:37:59;7.25;;;5.00;;
38479;SDS011;62333;51.980;5.934;2023-05-07T04:40:24;5.22;;;4.72;;
38479;SDS011;62333;51.980;5.934;2023-05-07T04:42:50;6.70;;;5.53;;
38479;SDS011;62333;51.980;5.934;2023-05-07T04:45:16;6.30;;;4.72;;
38479;SDS011;62333;51.980;5.934;2023-05-07T04:47:42;6.00;;;4.25;;
38479;SDS011;62333;51.980;5.934;2023-05-07T04:50:07;5.28;;;4.55;;
38479;SDS011;62333;51.980;5.934;2023-05-07T04:52:33;6.45;;;5.43;;
38479;SDS011;62333;51.980;5.934;2023-05-07T04:54:59;5.97;;;5.00;;
38479;SDS011;62333;51.980;5.934;2023-05-07T04:57:25;7.00;;;5.18;;
38479;SDS011;62333;51.980;5.934;2023-05-07T04:59:52;7.93;;;6.32;;
38479;SDS011;62333;51.980;5.934;2023-05-07T05:02:18;9.38;;;6.93;;
38479;SDS011;62333;51.980;5.934;2023-05-07T05:04:43;6.07;;;5.47;;
38479;SDS011;62333;51.980;5.934;2023-05-07T05:07:09;5.90;;;4.93;;
38479;SDS011;62333;51.980;5.934;2023-05-07T05:09:35;6.35;;;5.55;;
38479;SDS011;62333;51.980;5.934;2023-05-07T05:12:01;6.90;;;5.75;;
38479;SDS011;62333;51.980;5.934;2023-05-07T05:14:26;5.65;;;5.13;;
38479;SDS011;62333;51.980;5.934;2023-05-07T05:16:52;6.43;;;5.20;;
38479;SDS011;62333;51.980;5.934;2023-05-07T05:19:17;8.00;;;6.20;;
38479;SDS011;62333;51.980;5.934;2023-05-07T05:21:43;6.22;;;5.25;;
38479;SDS011;62333;51.980;5.934;2023-05-07T05:24:09;7.50;;;6.20;;
38479;SDS011;62333;51.980;5.934;2023-05-07T05:26:35;7.78;;;5.75;;
38479;SDS011;62333;51.980;5.934;2023-05-07T05:29:00;7.00;;;5.57;;
38479;SDS011;62333;51.980;5.934;2023-05-07T05:31:26;6.35;;;5.63;;
38479;SDS011;62333;51.980;5.934;2023-05-07T05:33:52;6.40;;;4.95;;
38479;SDS011;62333;51.980;5.934;2023-05-07T05:36:17;6.82;;;5.60;;
38479;SDS011;62333;51.980;5.934;2023-05-07T05:38:43;6.97;;;6.20;;
38479;SDS011;62333;51.980;5.934;2023-05-07T05:41:09;5.05;;;3.97;;
38479;SDS011;62333;51.980;5.934;2023-05-07T05:43:35;8.25;;;5.88;;
38479;SDS011;62333;51.980;5.934;2023-05-07T05:46:01;7.35;;;5.68;;
38479;SDS011;62333;51.980;5.934;2023-05-07T05:48:28;7.40;;;5.50;;
38479;SDS011;62333;51.980;5.934;2023-05-07T05:50:54;6.20;;;5.53;;
38479;SDS011;62333;51.980;5.934;2023-05-07T05:53:19;6.97;;;5.72;;
38479;SDS011;62333;51.980;5.934;2023-05-07T05:55:45;5.80;;;5.20;;
38479;SDS011;62333;51.980;5.934;2023-05-07T05:58:11;6.95;;;6.20;;
38479;SDS011;62333;51.980;5.934;2023-05-07T06:00:37;7.10;;;5.43;;
38479;SDS011;62333;51.980;5.934;2023-05-07T06:03:02;6.82;;;5.60;;
38479;SDS011;62333;51.980;5.934;2023-05-07T06:05:28;8.75;;;6.00;;
38479;SDS011;62333;51.980;5.934;2023-05-07T06:07:54;10.82;;;5.85;;
38479;SDS011;62333;51.980;5.934;2023-05-07T06:10:19;9.45;;;6.78;;
38479;SDS011;62333;51.980;5.934;2023-05-07T06:12:45;5.38;;;4.65;;
38479;SDS011;62333;51.980;5.934;2023-05-07T06:15:11;6.75;;;5.47;;
38479;SDS011;62333;51.980;5.934;2023-05-07T06:17:37;6.15;;;5.00;;
38479;SDS011;62333;51.980;5.934;2023-05-07T06:20:02;6.43;;;5.60;;
38479;SDS011;62333;51.980;5.934;2023-05-07T06:22:28;7.72;;;6.05;;
38479;SDS011;62333;51.980;5.934;2023-05-07T06:24:54;7.55;;;6.85;;
38479;SDS011;62333;51.980;5.934;2023-05-07T06:27:20;8.13;;;5.20;;
38479;SDS011;62333;51.980;5.934;2023-05-07T06:29:47;6.30;;;5.70;;
38479;SDS011;62333;51.980;5.934;2023-05-07T06:32:13;7.45;;;5.45;;
38479;SDS011;62333;51.980;5.934;2023-05-07T06:34:39;8.70;;;7.28;;
38479;SDS011;62333;51.980;5.934;2023-05-07T06:37:05;8.73;;;7.82;;
38479;SDS011;62333;51.980;5.934;2023-05-07T06:39:31;6.88;;;5.60;;
38479;SDS011;62333;51.980;5.934;2023-05-07T06:41:57;7.22;;;5.85;;
38479;SDS011;62333;51.980;5.934;2023-05-07T06:44:23;5.90;;;5.25;;
38479;SDS011;62333;51.980;5.934;2023-05-07T06:46:48;6.85;;;5.95;;
38479;SDS011;62333;51.980;5.934;2023-05-07T06:49:14;9.07;;;8.18;;
38479;SDS011;62333;51.980;5.934;2023-05-07T06:51:40;7.95;;;7.15;;
38479;SDS011;62333;51.980;5.934;2023-05-07T06:54:05;9.35;;;7.70;;
38479;SDS011;62333;51.980;5.934;2023-05-07T06:56:32;9.23;;;7.75;;
38479;SDS011;62333;51.980;5.934;2023-05-07T06:58:59;7.65;;;6.88;;
38479;SDS011;62333;51.980;5.934;2023-05-07T07:01:25;8.93;;;8.07;;
38479;SDS011;62333;51.980;5.934;2023-05-07T07:03:51;11.07;;;9.07;;
38479;SDS011;62333;51.980;5.934;2023-05-07T07:06:17;9.80;;;8.57;;
38479;SDS011;62333;51.980;5.934;2023-05-07T07:08:42;7.43;;;6.68;;
38479;SDS011;62333;51.980;5.934;2023-05-07T07:11:08;8.77;;;7.88;;
38479;SDS011;62333;51.980;5.934;2023-05-07T07:13:35;11.35;;;9.00;;
38479;SDS011;62333;51.980;5.934;2023-05-07T07:16:00;13.07;;;11.52;;
38479;SDS011;62333;51.980;5.934;2023-05-07T07:18:26;13.02;;;10.25;;
38479;SDS011;62333;51.980;5.934;2023-05-07T07:20:52;9.85;;;8.95;;
38479;SDS011;62333;51.980;5.934;2023-05-07T07:23:18;10.68;;;9.35;;
38479;SDS011;62333;51.980;5.934;2023-05-07T07:25:43;10.98;;;9.63;;
38479;SDS011;62333;51.980;5.934;2023-05-07T07:28:09;10.30;;;9.23;;
38479;SDS011;62333;51.980;5.934;2023-05-07T07:30:36;12.15;;;8.80;;
38479;SDS011;62333;51.980;5.934;2023-05-07T07:33:02;11.82;;;8.50;;
38479;SDS011;62333;51.980;5.934;2023-05-07T07:35:31;9.60;;;8.45;;
38479;SDS011;62333;51.980;5.934;2023-05-07T07:37:57;8.95;;;8.05;;
38479;SDS011;62333;51.980;5.934;2023-05-07T07:40:23;10.38;;;8.80;;
38479;SDS011;62333;51.980;5.934;2023-05-07T07:42:50;8.90;;;7.72;;
38479;SDS011;62333;51.980;5.934;2023-05-07T07:45:16;11.15;;;9.93;;
38479;SDS011;62333;51.980;5.934;2023-05-07T07:47:42;12.05;;;9.32;;
38479;SDS011;62333;51.980;5.934;2023-05-07T07:50:07;9.80;;;8.63;;
38479;SDS011;62333;51.980;5.934;2023-05-07T07:52:34;11.57;;;9.98;;
38479;SDS011;62333;51.980;5.934;2023-05-07T07:54:59;10.63;;;9.27;;
38479;SDS011;62333;51.980;5.934;2023-05-07T07:57:25;11.88;;;9.57;;
38479;SDS011;62333;51.980;5.934;2023-05-07T07:59:51;13.13;;;10.43;;
38479;SDS011;62333;51.980;5.934;2023-05-07T08:02:17;10.35;;;8.75;;
38479;SDS011;62333;51.980;5.934;2023-05-07T08:04:43;11.70;;;9.95;;
38479;SDS011;62333;51.980;5.934;2023-05-07T08:07:12;15.15;;;9.38;;
38479;SDS011;62333;51.980;5.934;2023-05-07T08:09:38;9.25;;;8.27;;
38479;SDS011;62333;51.980;5.934;2023-05-07T08:12:04;10.25;;;8.65;;
38479;SDS011;62333;51.980;5.934;2023-05-07T08:14:30;10.02;;;8.95;;
38479;SDS011;62333;51.980;5.934;2023-05-07T08:16:56;10.57;;;9.48;;
38479;SDS011;62333;51.980;5.934;2023-05-07T08:19:22;9.18;;;7.43;;
38479;SDS011;62333;51.980;5.934;2023-05-07T08:21:47;12.60;;;10.93;;
38479;SDS011;62333;51.980;5.934;2023-05-07T08:24:13;11.55;;;10.00;;
38479;SDS011;62333;51.980;5.934;2023-05-07T08:26:40;10.18;;;8.93;;
38479;SDS011;62333;51.980;5.934;2023-05-07T08:29:06;10.10;;;8.10;;
38479;SDS011;62333;51.980;5.934;2023-05-07T08:31:32;10.70;;;8.85;;
38479;SDS011;62333;51.980;5.934;2023-05-07T08:33:57;10.88;;;9.48;;
38479;SDS011;62333;51.980;5.934;2023-05-07T08:36:24;10.80;;;9.70;;
38479;SDS011;62333;51.980;5.934;2023-05-07T08:38:50;11.48;;;9.10;;
38479;SDS011;62333;51.980;5.934;2023-05-07T08:41:16;10.77;;;8.27;;
38479;SDS011;62333;51.980;5.934;2023-05-07T08:43:42;10.00;;;8.95;;
38479;SDS011;62333;51.980;5.934;2023-05-07T08:46:19;9.40;;;7.75;;
38479;SDS011;62333;51.980;5.934;2023-05-07T08:48:49;8.43;;;6.85;;
38479;SDS011;62333;51.980;5.934;2023-05-07T08:51:16;12.48;;;9.57;;
38479;SDS011;62333;51.980;5.934;2023-05-07T08:53:44;10.73;;;9.63;;
38479;SDS011;62333;51.980;5.934;2023-05-07T08:56:11;11.82;;;10.30;;
38479;SDS011;62333;51.980;5.934;2023-05-07T08:58:37;11.82;;;9.27;;
38479;SDS011;62333;51.980;5.934;2023-05-07T09:01:03;10.35;;;7.60;;
38479;SDS011;62333;51.980;5.934;2023-05-07T09:03:34;11.00;;;7.55;;
38479;SDS011;62333;51.980;5.934;2023-05-07T09:06:00;11.32;;;9.18;;
38479;SDS011;62333;51.980;5.934;2023-05-07T09:08:26;10.25;;;8.70;;
38479;SDS011;62333;51.980;5.934;2023-05-07T09:10:52;13.38;;;7.85;;
38479;SDS011;62333;51.980;5.934;2023-05-07T09:13:18;10.52;;;8.63;;
38479;SDS011;62333;51.980;5.934;2023-05-07T09:15:44;10.15;;;8.45;;
38479;SDS011;62333;51.980;5.934;2023-05-07T09:18:10;11.35;;;9.40;;
38479;SDS011;62333;51.980;5.934;2023-05-07T09:20:37;12.30;;;10.20;;
38479;SDS011;62333;51.980;5.934;2023-05-07T09:23:03;10.63;;;9.57;;
38479;SDS011;62333;51.980;5.934;2023-05-07T09:25:29;8.77;;;7.88;;
38479;SDS011;62333;51.980;5.934;2023-05-07T09:27:56;9.77;;;8.23;;
38479;SDS011;62333;51.980;5.934;2023-05-07T09:30:22;11.30;;;7.40;;
38479;SDS011;62333;51.980;5.934;2023-05-07T09:32:48;10.00;;;7.63;;
38479;SDS011;62333;51.980;5.934;2023-05-07T09:35:16;9.57;;;8.52;;
38479;SDS011;62333;51.980;5.934;2023-05-07T09:37:43;8.90;;;8.00;;
38479;SDS011;62333;51.980;5.934;2023-05-07T09:40:10;9.00;;;7.28;;
38479;SDS011;62333;51.980;5.934;2023-05-07T09:42:46;8.70;;;6.88;;
38479;SDS011;62333;51.980;5.934;2023-05-07T09:45:12;10.77;;;7.00;;
38479;SDS011;62333;51.980;5.934;2023-05-07T09:47:38;9.60;;;7.05;;
38479;SDS011;62333;51.980;5.934;2023-05-07T09:50:06;7.53;;;5.90;;
38479;SDS011;62333;51.980;5.934;2023-05-07T09:52:35;9.30;;;7.93;;
38479;SDS011;62333;51.980;5.934;2023-05-07T09:55:01;8.95;;;7.32;;
38479;SDS011;62333;51.980;5.934;2023-05-07T09:57:28;8.43;;;6.47;;
38479;SDS011;62333;51.980;5.934;2023-05-07T09:59:55;7.72;;;5.53;;
38479;SDS011;62333;51.980;5.934;2023-05-07T10:02:23;8.82;;;5.70;;
38479;SDS011;62333;51.980;5.934;2023-05-07T10:04:53;6.55;;;5.50;;
38479;SDS011;62333;51.980;5.934;2023-05-07T10:07:19;8.93;;;6.93;;
38479;SDS011;62333;51.980;5.934;2023-05-07T10:09:46;10.90;;;7.50;;
38479;SDS011;62333;51.980;5.934;2023-05-07T10:12:12;10.00;;;7.88;;
38479;SDS011;62333;51.980;5.934;2023-05-07T10:14:38;8.40;;;5.40;;
38479;SDS011;62333;51.980;5.934;2023-05-07T10:17:04;10.50;;;6.90;;
38479;SDS011;62333;51.980;5.934;2023-05-07T10:19:31;7.13;;;5.78;;
38479;SDS011;62333;51.980;5.934;2023-05-07T10:22:00;6.70;;;6.00;;
38479;SDS011;62333;51.980;5.934;2023-05-07T10:24:31;7.93;;;6.75;;
38479;SDS011;62333;51.980;5.934;2023-05-07T10:27:02;6.10;;;4.40;;
38479;SDS011;62333;51.980;5.934;2023-05-07T10:29:42;6.28;;;4.97;;
38479;SDS011;62333;51.980;5.934;2023-05-07T10:35:10;9.52;;;5.82;;
38479;SDS011;62333;51.980;5.934;2023-05-07T10:37:46;4.75;;;3.72;;
38479;SDS011;62333;51.980;5.934;2023-05-07T10:40:12;7.43;;;5.70;;
38479;SDS011;62333;51.980;5.934;2023-05-07T10:42:39;7.03;;;5.63;;
38479;SDS011;62333;51.980;5.934;2023-05-07T10:45:18;7.55;;;5.53;;
38479;SDS011;62333;51.980;5.934;2023-05-07T10:50:30;6.63;;;5.22;;
38479;SDS011;62333;51.980;5.934;2023-05-07T10:55:47;7.85;;;4.43;;
38479;SDS011;62333;51.980;5.934;2023-05-07T10:58:23;5.80;;;4.53;;
38479;SDS011;62333;51.980;5.934;2023-05-07T11:01:00;5.00;;;3.83;;
38479;SDS011;62333;51.980;5.934;2023-05-07T11:03:26;5.90;;;4.35;;
38479;SDS011;62333;51.980;5.934;2023-05-07T11:06:15;6.32;;;3.58;;
38479;SDS011;62333;51.980;5.934;2023-05-07T11:11:20;4.78;;;4.18;;
38479;SDS011;62333;51.980;5.934;2023-05-07T11:17:19;4.50;;;3.28;;
38479;SDS011;62333;51.980;5.934;2023-05-07T11:19:51;5.00;;;3.15;;
38479;SDS011;62333;51.980;5.934;2023-05-07T11:25:00;5.60;;;4.30;;
38479;SDS011;62333;51.980;5.934;2023-05-07T11:27:30;4.18;;;3.17;;
38479;SDS011;62333;51.980;5.934;2023-05-07T11:29:57;5.80;;;3.03;;
38479;SDS011;62333;51.980;5.934;2023-05-07T11:32:26;5.25;;;3.50;;
38479;SDS011;62333;51.980;5.934;2023-05-07T11:34:54;6.03;;;3.42;;
38479;SDS011;62333;51.980;5.934;2023-05-07T11:37:21;3.72;;;2.05;;
38479;SDS011;62333;51.980;5.934;2023-05-07T11:39:47;5.20;;;3.60;;
38479;SDS011;62333;51.980;5.934;2023-05-07T11:45:02;3.67;;;3.03;;
38479;SDS011;62333;51.980;5.934;2023-05-07T11:47:29;8.40;;;3.85;;
38479;SDS011;62333;51.980;5.934;2023-05-07T11:49:55;3.92;;;2.65;;
38479;SDS011;62333;51.980;5.934;2023-05-07T11:52:22;5.07;;;3.13;;
38479;SDS011;62333;51.980;5.934;2023-05-07T11:54:50;4.68;;;3.75;;
38479;SDS011;62333;51.980;5.934;2023-05-07T11:57:26;4.38;;;3.40;;
38479;SDS011;62333;51.980;5.934;2023-05-07T11:59:55;3.58;;;2.65;;
38479;SDS011;62333;51.980;5.934;2023-05-07T12:02:22;6.20;;;3.05;;
38479;SDS011;62333;51.980;5.934;2023-05-07T12:04:50;4.95;;;3.45;;
38479;SDS011;62333;51.980;5.934;2023-05-07T12:07:16;3.85;;;2.80;;
38479;SDS011;62333;51.980;5.934;2023-05-07T12:09:43;3.92;;;2.85;;
38479;SDS011;62333;51.980;5.934;2023-05-07T12:12:09;4.70;;;2.58;;
38479;SDS011;62333;51.980;5.934;2023-05-07T12:14:39;5.65;;;3.47;;
38479;SDS011;62333;51.980;5.934;2023-05-07T12:17:09;4.75;;;3.35;;
38479;SDS011;62333;51.980;5.934;2023-05-07T12:19:36;5.03;;;2.63;;
38479;SDS011;62333;51.980;5.934;2023-05-07T12:22:03;3.40;;;2.40;;
38479;SDS011;62333;51.980;5.934;2023-05-07T12:24:41;3.50;;;2.50;;
38479;SDS011;62333;51.980;5.934;2023-05-07T12:27:10;4.93;;;3.53;;
38479;SDS011;62333;51.980;5.934;2023-05-07T12:29:35;4.38;;;3.08;;
38479;SDS011;62333;51.980;5.934;2023-05-07T12:32:04;5.50;;;3.08;;
38479;SDS011;62333;51.980;5.934;2023-05-07T12:34:31;3.58;;;2.20;;
38479;SDS011;62333;51.980;5.934;2023-05-07T12:36:57;3.72;;;2.70;;
38479;SDS011;62333;51.980;5.934;2023-05-07T12:39:26;5.40;;;3.83;;
38479;SDS011;62333;51.980;5.934;2023-05-07T12:41:55;3.75;;;2.53;;
38479;SDS011;62333;51.980;5.934;2023-05-07T12:44:23;3.65;;;2.53;;
38479;SDS011;62333;51.980;5.934;2023-05-07T12:46:50;3.75;;;1.92;;
38479;SDS011;62333;51.980;5.934;2023-05-07T12:49:16;4.25;;;2.90;;
38479;SDS011;62333;51.980;5.934;2023-05-07T12:51:46;4.82;;;2.90;;
38479;SDS011;62333;51.980;5.934;2023-05-07T12:54:13;6.35;;;2.95;;
38479;SDS011;62333;51.980;5.934;2023-05-07T12:56:39;5.50;;;3.63;;
38479;SDS011;62333;51.980;5.934;2023-05-07T12:59:05;5.10;;;3.85;;
38479;SDS011;62333;51.980;5.934;2023-05-07T13:01:31;5.07;;;3.53;;
38479;SDS011;62333;51.980;5.934;2023-05-07T13:04:02;4.35;;;3.00;;
38479;SDS011;62333;51.980;5.934;2023-05-07T13:06:29;4.68;;;2.22;;
38479;SDS011;62333;51.980;5.934;2023-05-07T13:08:56;3.97;;;2.33;;
38479;SDS011;62333;51.980;5.934;2023-05-07T13:11:22;4.35;;;2.85;;
38479;SDS011;62333;51.980;5.934;2023-05-07T13:13:48;3.67;;;2.50;;
38479;SDS011;62333;51.980;5.934;2023-05-07T13:16:13;3.67;;;2.78;;
38479;SDS011;62333;51.980;5.934;2023-05-07T13:18:39;4.05;;;3.30;;
38479;SDS011;62333;51.980;5.934;2023-05-07T13:21:05;5.60;;;2.92;;
38479;SDS011;62333;51.980;5.934;2023-05-07T13:23:31;4.45;;;2.05;;
38479;SDS011;62333;51.980;5.934;2023-05-07T13:25:57;4.45;;;3.22;;
38479;SDS011;62333;51.980;5.934;2023-05-07T13:28:23;5.00;;;2.53;;
38479;SDS011;62333;51.980;5.934;2023-05-07T13:30:49;6.07;;;3.08;;
38479;SDS011;62333;51.980;5.934;2023-05-07T13:33:16;5.35;;;2.85;;
38479;SDS011;62333;51.980;5.934;2023-05-07T13:35:42;5.70;;;3.20;;
38479;SDS011;62333;51.980;5.934;2023-05-07T13:38:08;5.22;;;3.05;;
38479;SDS011;62333;51.980;5.934;2023-05-07T13:40:34;5.63;;;2.88;;
38479;SDS011;62333;51.980;5.934;2023-05-07T13:42:59;3.83;;;2.25;;
38479;SDS011;62333;51.980;5.934;2023-05-07T13:45:27;4.70;;;2.70;;
38479;SDS011;62333;51.980;5.934;2023-05-07T13:47:54;4.57;;;2.90;;
38479;SDS011;62333;51.980;5.934;2023-05-07T13:50:21;5.50;;;3.20;;
38479;SDS011;62333;51.980;5.934;2023-05-07T13:52:47;5.20;;;3.13;;
38479;SDS011;62333;51.980;5.934;2023-05-07T13:55:19;3.30;;;1.50;;
38479;SDS011;62333;51.980;5.934;2023-05-07T13:57:46;4.00;;;1.85;;
38479;SDS011;62333;51.980;5.934;2023-05-07T14:00:12;5.60;;;3.25;;
38479;SDS011;62333;51.980;5.934;2023-05-07T14:02:39;4.70;;;2.55;;
38479;SDS011;62333;51.980;5.934;2023-05-07T14:05:05;4.68;;;2.70;;
38479;SDS011;62333;51.980;5.934;2023-05-07T14:07:31;3.25;;;1.52;;
38479;SDS011;62333;51.980;5.934;2023-05-07T14:09:57;4.38;;;2.28;;
38479;SDS011;62333;51.980;5.934;2023-05-07T14:12:23;4.22;;;2.45;;
38479;SDS011;62333;51.980;5.934;2023-05-07T14:14:48;3.80;;;1.33;;
38479;SDS011;62333;51.980;5.934;2023-05-07T14:17:16;4.80;;;2.45;;
38479;SDS011;62333;51.980;5.934;2023-05-07T14:19:42;3.78;;;2.63;;
38479;SDS011;62333;51.980;5.934;2023-05-07T14:22:08;5.18;;;3.35;;
38479;SDS011;62333;51.980;5.934;2023-05-07T14:24:34;4.32;;;2.97;;
38479;SDS011;62333;51.980;5.934;2023-05-07T14:27:00;4.18;;;2.60;;
38479;SDS011;62333;51.980;5.934;2023-05-07T14:29:25;3.35;;;2.20;;
38479;SDS011;62333;51.980;5.934;2023-05-07T14:31:51;6.25;;;2.20;;
38479;SDS011;62333;51.980;5.934;2023-05-07T14:34:17;4.18;;;2.35;;
38479;SDS011;62333;51.980;5.934;2023-05-07T14:36:42;5.43;;;3.50;;
38479;SDS011;62333;51.980;5.934;2023-05-07T14:39:09;5.28;;;3.28;;
38479;SDS011;62333;51.980;5.934;2023-05-07T14:41:34;4.18;;;2.40;;
38479;SDS011;62333;51.980;5.934;2023-05-07T14:44:00;4.85;;;3.22;;
38479;SDS011;62333;51.980;5.934;2023-05-07T14:46:26;3.47;;;2.08;;
38479;SDS011;62333;51.980;5.934;2023-05-07T14:48:52;3.03;;;1.10;;
38479;SDS011;62333;51.980;5.934;2023-05-07T14:51:18;2.58;;;0.95;;
38479;SDS011;62333;51.980;5.934;2023-05-07T14:53:43;1.65;;;0.60;;
38479;SDS011;62333;51.980;5.934;2023-05-07T14:56:09;1.90;;;0.63;;
38479;SDS011;62333;51.980;5.934;2023-05-07T14:58:35;2.40;;;0.40;;
38479;SDS011;62333;51.980;5.934;2023-05-07T15:01:02;1.13;;;0.50;;
38479;SDS011;62333;51.980;5.934;2023-05-07T15:03:28;2.03;;;0.30;;